Terminal Aerodrome Forecast
Issued by NWS

Home | Current Version | Previous Version | Text Only | Print | Product List | Glossary Off
Versions: 1 2 3 4 5 6 7 8 9 10 11 12 13

000
FTUS42 KMHX 121720
TAFOAJ
TAF
KOAJ 121720Z 1218/1318 27011G18KT P6SM SCT200
     FM122300 29010G18KT P6SM SCT050
     FM130300 31011G23KT P6SM SKC
      AMD LTD TO CLD VIS AND WIND=

USA.gov is the U.S. government's official web portal to all federal, state and local government web resources and services.